createdAt,value
2023-02-05T00:02:25.703Z,3.80
2023-02-05T00:04:54.444Z,3.20
2023-02-05T00:07:22.608Z,3.72
2023-02-05T00:09:51.031Z,4.03
2023-02-05T00:12:19.183Z,3.58
2023-02-05T00:14:47.710Z,2.78
2023-02-05T00:17:17.362Z,2.65
2023-02-05T00:19:46.087Z,2.15
2023-02-05T00:22:14.222Z,2.78
2023-02-05T00:24:42.716Z,2.03
2023-02-05T00:27:10.857Z,1.98
2023-02-05T00:29:39.453Z,2.15
2023-02-05T00:32:07.556Z,2.45
2023-02-05T00:34:37.563Z,2.35
2023-02-05T00:37:05.659Z,1.85
2023-02-05T00:39:34.327Z,1.70
2023-02-05T00:42:02.471Z,1.20
2023-02-05T00:44:30.868Z,1.65
2023-02-05T00:46:59.024Z,1.15
2023-02-05T00:49:27.592Z,1.42
2023-02-05T00:51:57.114Z,1.30
2023-02-05T00:54:25.522Z,1.00
2023-02-05T00:56:53.653Z,1.42
2023-02-05T00:59:23.897Z,1.15
2023-02-05T01:01:52.348Z,1.15
2023-02-05T01:04:21.042Z,1.17
2023-02-05T01:06:49.217Z,1.30
2023-02-05T01:09:18.987Z,1.33
2023-02-05T01:11:47.100Z,1.55
2023-02-05T01:14:15.478Z,1.45
2023-02-05T01:16:43.642Z,1.17
2023-02-05T01:19:12.085Z,1.52
2023-02-05T01:21:40.231Z,1.60
2023-02-05T01:24:08.791Z,1.73
2023-02-05T01:26:38.286Z,1.92
2023-02-05T01:29:06.760Z,2.55
2023-02-05T01:31:35.123Z,2.38
2023-02-05T01:34:03.591Z,2.70
2023-02-05T01:36:31.790Z,2.75
2023-02-05T01:39:00.290Z,3.28
2023-02-05T01:41:28.434Z,2.88
2023-02-05T01:44:09.697Z,3.53
2023-02-05T01:46:39.048Z,2.75
2023-02-05T01:49:09.576Z,2.92
2023-02-05T01:51:38.947Z,3.00
2023-02-05T01:54:07.966Z,3.10
2023-02-05T01:56:39.117Z,2.95
2023-02-05T01:59:11.650Z,3.27
2023-02-05T02:04:28.815Z,3.50
2023-02-05T02:06:57.244Z,4.22
2023-02-05T02:09:25.401Z,5.07
2023-02-05T02:11:53.798Z,4.70
2023-02-05T02:14:23.548Z,5.57
2023-02-05T02:16:53.029Z,5.00
2023-02-05T02:19:27.946Z,5.28
2023-02-05T02:22:41.856Z,5.15
2023-02-05T02:25:34.252Z,5.30
2023-02-05T02:28:09.682Z,5.40
2023-02-05T02:30:42.222Z,5.15
2023-02-05T02:33:16.740Z,4.28
2023-02-05T02:35:47.978Z,5.65
2023-02-05T02:38:22.415Z,4.82
2023-02-05T02:40:52.825Z,6.00
2023-02-05T02:43:25.810Z,5.35
2023-02-05T02:45:56.382Z,6.47
2023-02-05T02:48:26.440Z,5.47
2023-02-05T02:50:56.543Z,5.85
2023-02-05T02:53:28.991Z,5.57
2023-02-05T02:55:58.370Z,7.18
2023-02-05T02:58:32.394Z,7.20
2023-02-05T03:01:00.741Z,6.40
2023-02-05T03:03:31.108Z,6.40
2023-02-05T03:05:59.859Z,6.78
2023-02-05T03:08:31.987Z,6.15
2023-02-05T03:11:02.666Z,5.75
2023-02-05T03:13:32.898Z,6.82
2023-02-05T03:16:01.796Z,7.07
2023-02-05T03:18:31.058Z,6.95
2023-02-05T03:21:01.296Z,6.53
2023-02-05T03:23:30.198Z,6.95
2023-02-05T03:25:58.342Z,7.40
2023-02-05T03:28:27.049Z,7.60
2023-02-05T03:31:02.825Z,7.65
2023-02-05T03:33:39.366Z,7.70
2023-02-05T03:36:14.350Z,7.70
2023-02-05T03:38:51.498Z,7.43
2023-02-05T03:41:45.972Z,8.18
2023-02-05T03:44:21.318Z,9.25
2023-02-05T03:46:59.670Z,8.38
2023-02-05T03:49:36.774Z,8.48
2023-02-05T03:52:08.547Z,8.25
2023-02-05T03:54:44.101Z,9.20
2023-02-05T03:57:18.054Z,8.27
2023-02-05T03:59:46.895Z,6.80
2023-02-05T04:02:16.512Z,8.13
2023-02-05T04:04:45.064Z,8.73
2023-02-05T04:07:13.473Z,7.55
2023-02-05T04:09:41.911Z,7.65
2023-02-05T04:12:10.958Z,7.57
2023-02-05T04:14:39.373Z,7.82
2023-02-05T04:17:07.682Z,7.35
2023-02-05T04:19:37.434Z,8.73
2023-02-05T04:22:05.579Z,9.45
2023-02-05T04:24:33.934Z,10.25
2023-02-05T04:27:02.435Z,8.60
2023-02-05T04:29:30.879Z,9.57
2023-02-05T04:31:59.074Z,9.00
2023-02-05T04:34:27.772Z,8.43
2023-02-05T04:36:57.243Z,7.30
2023-02-05T04:39:25.619Z,7.53
2023-02-05T04:41:54.311Z,8.18
2023-02-05T04:44:22.855Z,8.38
2023-02-05T04:46:51.017Z,7.45
2023-02-05T04:49:19.444Z,8.00
2023-02-05T04:51:47.660Z,7.90
2023-02-05T04:54:17.450Z,8.13
2023-02-05T04:56:46.849Z,8.18
2023-02-05T04:59:15.265Z,7.35
2023-02-05T05:01:43.394Z,8.35
2023-02-05T05:04:11.894Z,9.90
2023-02-05T05:06:40.289Z,7.55
2023-02-05T05:09:08.662Z,7.80
2023-02-05T05:11:38.138Z,7.30
2023-02-05T05:14:06.526Z,7.90
2023-02-05T05:16:34.617Z,8.20
2023-02-05T05:19:03.061Z,7.40
2023-02-05T05:21:31.347Z,8.45
2023-02-05T05:23:59.715Z,7.85
2023-02-05T05:26:27.850Z,7.85
2023-02-05T05:28:58.077Z,8.35
2023-02-05T05:31:26.582Z,8.60
2023-02-05T05:33:54.975Z,8.23
2023-02-05T05:36:23.211Z,8.30
2023-02-05T05:38:51.719Z,8.95
2023-02-05T05:41:39.900Z,8.50
2023-02-05T05:44:10.464Z,7.70
2023-02-05T05:46:38.687Z,7.78
2023-02-05T05:49:07.130Z,8.25
2023-02-05T05:51:35.372Z,7.85
2023-02-05T05:54:03.920Z,8.18
2023-02-05T05:56:32.115Z,8.50
2023-02-05T05:59:00.542Z,8.38
2023-02-05T06:01:30.039Z,9.30
2023-02-05T06:03:58.815Z,7.57
2023-02-05T06:06:27.481Z,8.10
2023-02-05T06:08:55.864Z,9.23
2023-02-05T06:11:23.966Z,8.57
2023-02-05T06:13:52.324Z,9.10
2023-02-05T06:16:20.457Z,8.45
2023-02-05T06:18:50.272Z,7.70
2023-02-05T06:21:18.389Z,8.85
2023-02-05T06:23:46.768Z,8.13
2023-02-05T06:26:14.924Z,8.15
2023-02-05T06:28:43.305Z,8.32
2023-02-05T06:31:11.692Z,10.13
2023-02-05T06:33:40.195Z,9.25
2023-02-05T06:36:09.989Z,9.50
2023-02-05T06:38:38.567Z,9.95
2023-02-05T06:41:06.842Z,10.38
2023-02-05T06:43:35.300Z,9.90
2023-02-05T06:46:03.531Z,10.15
2023-02-05T06:48:32.006Z,10.40
2023-02-05T06:51:00.291Z,10.95
2023-02-05T06:53:30.122Z,9.45
2023-02-05T06:55:59.568Z,12.35
2023-02-05T06:58:28.005Z,11.25
2023-02-05T07:00:56.169Z,13.27
2023-02-05T07:03:24.634Z,13.57
2023-02-05T07:05:52.714Z,13.00
2023-02-05T07:08:21.126Z,12.90
2023-02-05T07:10:50.730Z,12.55
2023-02-05T07:13:19.111Z,12.77
2023-02-05T07:15:47.401Z,12.38
2023-02-05T07:18:15.826Z,13.05
2023-02-05T07:20:44.006Z,11.63
2023-02-05T07:23:12.374Z,13.02
2023-02-05T07:25:40.666Z,14.98
2023-02-05T07:28:10.615Z,13.23
2023-02-05T07:30:38.874Z,12.93
2023-02-05T07:33:07.539Z,13.05
2023-02-05T07:35:39.301Z,13.07
2023-02-05T07:38:07.840Z,14.18
2023-02-05T07:40:37.695Z,14.85
2023-02-05T07:43:06.147Z,15.48
2023-02-05T07:45:35.964Z,15.60
2023-02-05T07:48:04.769Z,12.02
2023-02-05T07:50:33.407Z,13.70
2023-02-05T07:53:01.925Z,16.95
2023-02-05T07:55:30.173Z,14.10
2023-02-05T07:57:58.536Z,14.00
2023-02-05T08:00:26.646Z,16.45
2023-02-05T08:02:56.375Z,12.00
2023-02-05T08:05:24.738Z,12.35
2023-02-05T08:07:53.447Z,11.35
2023-02-05T08:10:22.194Z,12.15
2023-02-05T08:12:50.635Z,9.60
2023-02-05T08:15:18.949Z,9.50
2023-02-05T08:17:47.350Z,7.05
2023-02-05T08:20:16.987Z,8.20
2023-02-05T08:22:45.455Z,8.27
2023-02-05T08:25:15.023Z,7.88
2023-02-05T08:27:46.037Z,9.82
2023-02-05T08:30:17.187Z,8.43
2023-02-05T08:32:49.248Z,19.38
2023-02-05T08:35:19.610Z,28.25
2023-02-05T08:37:48.184Z,16.13
2023-02-05T08:40:16.353Z,17.17
2023-02-05T08:42:45.593Z,16.27
2023-02-05T08:45:14.084Z,15.65
2023-02-05T08:47:42.458Z,13.57
2023-02-05T08:50:11.430Z,11.57
2023-02-05T08:52:41.202Z,11.07
2023-02-05T08:55:09.604Z,10.60
2023-02-05T08:57:38.354Z,9.35
2023-02-05T09:00:08.082Z,12.30
2023-02-05T09:02:36.473Z,10.95
2023-02-05T09:05:09.308Z,7.93
2023-02-05T09:07:40.430Z,8.57
2023-02-05T09:10:09.880Z,7.68
2023-02-05T09:12:38.693Z,8.07
2023-02-05T09:15:08.151Z,7.88
2023-02-05T09:17:36.974Z,7.38
2023-02-05T09:20:05.755Z,6.60
2023-02-05T09:22:34.133Z,9.38
2023-02-05T09:25:03.704Z,9.85
2023-02-05T09:27:32.388Z,7.80
2023-02-05T09:30:00.609Z,9.90
2023-02-05T09:32:29.158Z,8.38
2023-02-05T09:34:57.313Z,8.68
2023-02-05T09:37:25.722Z,8.50
2023-02-05T09:42:46.987Z,9.35
2023-02-05T09:45:28.045Z,8.93
2023-02-05T09:48:04.477Z,8.05
2023-02-05T09:50:33.766Z,8.27
2023-02-05T09:53:05.762Z,7.32
2023-02-05T09:55:36.690Z,6.30
2023-02-05T09:58:09.540Z,7.33
2023-02-05T10:00:44.618Z,10.02
2023-02-05T10:03:20.750Z,10.57
2023-02-05T10:06:02.027Z,9.90
2023-02-05T10:08:36.387Z,10.10
2023-02-05T10:11:06.052Z,6.35
2023-02-05T10:13:37.667Z,6.90
2023-02-05T10:16:36.304Z,7.77
2023-02-05T10:19:35.418Z,7.22
2023-02-05T10:22:11.961Z,6.72
2023-02-05T10:24:55.249Z,4.00
2023-02-05T10:27:24.649Z,5.85
2023-02-05T10:30:01.155Z,6.30
2023-02-05T10:32:38.398Z,4.75
2023-02-05T10:35:13.786Z,4.68
2023-02-05T10:37:46.060Z,4.60
2023-02-05T10:40:17.578Z,5.40
2023-02-05T10:42:47.935Z,5.55
2023-02-05T10:45:19.459Z,5.35
2023-02-05T10:48:13.047Z,5.93
2023-02-05T10:50:59.762Z,4.57
2023-02-05T10:53:28.654Z,5.32
2023-02-05T10:55:59.126Z,5.15
2023-02-05T10:58:40.101Z,6.60
2023-02-05T11:01:15.662Z,5.88
2023-02-05T11:03:50.822Z,5.95
2023-02-05T11:06:19.612Z,4.85
2023-02-05T11:08:48.400Z,4.43
2023-02-05T11:11:22.701Z,4.40
2023-02-05T11:13:54.861Z,5.47
2023-02-05T11:16:25.619Z,4.68
2023-02-05T11:18:58.819Z,4.38
2023-02-05T11:21:47.721Z,5.13
2023-02-05T11:24:25.672Z,5.00
2023-02-05T11:27:14.537Z,4.93
2023-02-05T11:29:42.879Z,5.18
2023-02-05T11:32:21.582Z,4.75
2023-02-05T11:34:49.813Z,5.85
2023-02-05T11:37:19.822Z,4.88
2023-02-05T11:39:54.833Z,4.00
2023-02-05T11:42:25.315Z,4.95
2023-02-05T11:44:54.998Z,5.38
2023-02-05T11:47:29.374Z,3.13
2023-02-05T11:49:58.312Z,5.38
2023-02-05T11:52:29.298Z,5.13
2023-02-05T11:54:58.239Z,5.22
2023-02-05T11:57:33.740Z,5.82
2023-02-05T12:00:04.039Z,4.60
2023-02-05T12:02:36.556Z,7.05
2023-02-05T12:05:11.007Z,5.38
2023-02-05T12:07:42.362Z,5.03
2023-02-05T12:10:17.158Z,5.45
2023-02-05T12:12:51.658Z,5.05
2023-02-05T12:15:26.227Z,4.80
2023-02-05T12:18:04.585Z,5.82
2023-02-05T12:20:36.793Z,4.85
2023-02-05T12:23:24.417Z,5.47
2023-02-05T12:26:03.800Z,5.53
2023-02-05T12:28:41.500Z,5.55
2023-02-05T12:31:22.326Z,5.45
2023-02-05T12:34:03.428Z,5.00
2023-02-05T12:36:43.216Z,4.88
2023-02-05T12:39:20.957Z,4.40
2023-02-05T12:41:55.246Z,4.38
2023-02-05T12:44:33.310Z,4.93
2023-02-05T12:47:10.011Z,6.10
2023-02-05T12:49:48.896Z,4.00
2023-02-05T12:52:26.746Z,5.30
2023-02-05T12:55:06.824Z,4.35
2023-02-05T12:57:40.259Z,4.47
2023-02-05T13:00:14.803Z,5.07
2023-02-05T13:02:50.282Z,3.97
2023-02-05T13:05:23.104Z,4.45
2023-02-05T13:07:56.094Z,4.88
2023-02-05T13:10:28.212Z,4.63
2023-02-05T13:13:00.833Z,7.00
2023-02-05T13:15:32.132Z,30.45
2023-02-05T13:18:02.617Z,3.67
2023-02-05T13:20:54.507Z,25.40
2023-02-05T13:23:40.768Z,2.75
2023-02-05T13:26:28.673Z,6.25
2023-02-05T13:28:59.709Z,4.95
2023-02-05T13:31:31.899Z,5.20
2023-02-05T13:34:05.094Z,5.80
2023-02-05T13:37:12.848Z,9.70
2023-02-05T13:40:07.569Z,3.15
2023-02-05T13:42:59.158Z,2.97
2023-02-05T13:45:44.124Z,4.15
2023-02-05T13:48:26.455Z,5.18
2023-02-05T13:51:30.306Z,10.70
2023-02-05T13:54:20.717Z,9.75
2023-02-05T13:56:52.622Z,7.93
2023-02-05T13:59:24.020Z,7.78
2023-02-05T14:01:56.424Z,6.35
2023-02-05T14:04:26.822Z,4.95
2023-02-05T14:07:01.098Z,6.93
2023-02-05T14:09:35.867Z,9.73
2023-02-05T14:12:06.543Z,8.23
2023-02-05T14:14:36.003Z,5.85
2023-02-05T14:17:35.715Z,9.07
2023-02-05T14:20:16.311Z,5.95
2023-02-05T14:22:45.566Z,6.00
2023-02-05T14:26:06.002Z,5.75
2023-02-05T14:28:49.398Z,7.00
2023-02-05T14:31:46.552Z,6.18
2023-02-05T14:34:51.543Z,4.05
2023-02-05T14:37:38.526Z,7.65
2023-02-05T14:40:24.009Z,24.52
2023-02-05T14:42:59.267Z,15.23
2023-02-05T14:45:30.494Z,7.85
2023-02-05T14:47:59.255Z,8.82
2023-02-05T14:50:29.901Z,6.53
2023-02-05T14:53:01.598Z,9.18
2023-02-05T14:55:34.507Z,7.20
2023-02-05T14:58:04.744Z,8.07
2023-02-05T15:00:35.016Z,8.27
2023-02-05T15:03:25.887Z,8.02
2023-02-05T15:05:58.730Z,8.88
2023-02-05T15:08:45.441Z,6.15
2023-02-05T15:11:19.424Z,6.38
2023-02-05T15:14:21.396Z,5.13
2023-02-05T15:16:49.842Z,18.88
2023-02-05T15:19:18.984Z,8.25
2023-02-05T15:21:50.632Z,7.93
2023-02-05T15:24:22.707Z,14.55
2023-02-05T15:26:54.574Z,15.52
2023-02-05T15:31:54.756Z,7.18
2023-02-05T15:34:30.918Z,15.18
2023-02-05T15:37:04.055Z,9.30
2023-02-05T15:39:37.050Z,9.77
2023-02-05T15:44:35.934Z,6.63
2023-02-05T15:47:06.094Z,7.63
2023-02-05T15:49:38.104Z,7.90
2023-02-05T15:52:06.845Z,8.20
2023-02-05T15:54:37.932Z,8.88
2023-02-05T15:57:07.296Z,21.80
2023-02-05T15:59:35.937Z,28.38
2023-02-05T16:02:08.505Z,23.70
2023-02-05T16:04:39.162Z,19.42
2023-02-05T16:07:19.628Z,18.02
2023-02-05T16:09:52.848Z,14.07
2023-02-05T16:12:22.003Z,12.70
2023-02-05T16:14:59.699Z,9.13
2023-02-05T16:17:34.013Z,8.50
2023-02-05T16:20:13.505Z,9.32
2023-02-05T16:22:44.006Z,8.63
2023-02-05T16:25:27.608Z,9.38
2023-02-05T16:27:56.852Z,7.65
2023-02-05T16:30:32.069Z,10.13
2023-02-05T16:33:02.665Z,12.63
2023-02-05T16:35:34.736Z,14.00
2023-02-05T16:38:08.770Z,15.48
2023-02-05T16:40:40.790Z,15.93
2023-02-05T16:43:20.772Z,14.60
2023-02-05T16:46:24.562Z,17.02
2023-02-05T16:48:54.568Z,15.77
2023-02-05T16:51:35.782Z,15.27
2023-02-05T16:54:20.221Z,14.82
2023-02-05T16:56:54.890Z,16.52
2023-02-05T16:59:25.339Z,13.63
2023-02-05T17:01:54.704Z,12.95
2023-02-05T17:04:26.860Z,11.40
2023-02-05T17:06:56.842Z,13.50
2023-02-05T17:09:32.868Z,12.90
2023-02-05T17:12:40.994Z,14.10
2023-02-05T17:15:35.637Z,14.80
2023-02-05T17:18:23.412Z,13.90
2023-02-05T17:20:51.981Z,14.30
2023-02-05T17:23:20.374Z,18.08
2023-02-05T17:25:55.374Z,18.05
2023-02-05T17:28:26.745Z,23.73
2023-02-05T17:30:58.822Z,22.23
2023-02-05T17:35:56.388Z,22.40
2023-02-05T17:38:24.922Z,23.65
2023-02-05T17:41:13.369Z,22.33
2023-02-05T17:43:42.118Z,23.50
2023-02-05T17:46:14.817Z,24.08
2023-02-05T17:48:44.628Z,23.15
2023-02-05T17:51:20.575Z,20.58
2023-02-05T17:53:49.196Z,20.92
2023-02-05T17:56:19.088Z,21.50
2023-02-05T17:58:47.511Z,22.08
2023-02-05T18:01:17.264Z,23.10
2023-02-05T18:03:45.714Z,25.33
2023-02-05T18:06:14.616Z,26.40
2023-02-05T18:08:43.189Z,23.77
2023-02-05T18:11:11.412Z,25.23
2023-02-05T18:13:39.961Z,26.17
2023-02-05T18:16:08.786Z,23.02
2023-02-05T18:18:39.855Z,19.27
2023-02-05T18:21:08.506Z,22.17
2023-02-05T18:23:37.011Z,24.60
2023-02-05T18:26:07.055Z,23.85
2023-02-05T18:28:36.185Z,23.33
2023-02-05T18:31:06.832Z,25.38
2023-02-05T18:33:36.107Z,25.73
2023-02-05T18:36:08.143Z,27.35
2023-02-05T18:41:06.801Z,26.13
2023-02-05T18:43:36.330Z,28.95
2023-02-05T18:46:08.759Z,28.95
2023-02-05T18:48:37.967Z,31.48
2023-02-05T18:51:08.902Z,29.67
2023-02-05T18:53:39.151Z,28.85
2023-02-05T18:56:09.410Z,28.33
2023-02-05T18:58:38.177Z,31.83
2023-02-05T19:01:10.580Z,32.47
2023-02-05T19:03:40.759Z,30.30
2023-02-05T19:06:10.805Z,30.85
2023-02-05T19:08:39.442Z,30.08
2023-02-05T19:11:08.471Z,31.73
2023-02-05T19:13:37.394Z,31.52
2023-02-05T19:16:07.307Z,34.20
2023-02-05T19:18:35.838Z,31.88
2023-02-05T19:21:07.979Z,26.60
2023-02-05T19:23:38.556Z,29.35
2023-02-05T19:26:09.656Z,29.63
2023-02-05T19:28:38.909Z,31.07
2023-02-05T19:31:08.476Z,30.90
2023-02-05T19:33:37.316Z,34.95
2023-02-05T19:36:07.964Z,36.97
2023-02-05T19:38:38.519Z,37.83
2023-02-05T19:41:07.949Z,41.45
2023-02-05T19:43:36.507Z,34.25
2023-02-05T19:46:05.250Z,37.55
2023-02-05T19:48:34.595Z,35.47
2023-02-05T19:51:04.894Z,37.85
2023-02-05T19:53:33.274Z,32.05
2023-02-05T19:56:07.764Z,31.52
2023-02-05T19:58:36.959Z,32.08
2023-02-05T20:01:12.182Z,29.45
2023-02-05T20:03:40.840Z,29.90
2023-02-05T20:06:11.407Z,30.75
2023-02-05T20:08:40.382Z,34.50
2023-02-05T20:11:11.707Z,35.00
2023-02-05T20:13:40.867Z,38.72
2023-02-05T20:16:11.392Z,38.22
2023-02-05T20:18:40.187Z,38.92
2023-02-05T20:21:09.408Z,38.67
2023-02-05T20:23:38.341Z,39.30
2023-02-05T20:26:07.800Z,39.35
2023-02-05T20:28:59.697Z,35.95
2023-02-05T20:31:34.477Z,38.78
2023-02-05T20:34:03.605Z,36.92
2023-02-05T20:36:33.415Z,35.47
2023-02-05T20:39:03.530Z,39.90
2023-02-05T20:41:31.875Z,41.45
2023-02-05T20:44:03.102Z,33.95
2023-02-05T20:46:32.029Z,34.15
2023-02-05T20:49:00.943Z,34.35
2023-02-05T20:51:29.279Z,34.85
2023-02-05T20:53:58.450Z,35.47
2023-02-05T20:56:28.387Z,35.83
2023-02-05T20:58:59.656Z,39.83
2023-02-05T21:01:30.424Z,41.33
2023-02-05T21:04:00.020Z,36.72
2023-02-05T21:06:30.324Z,36.30
2023-02-05T21:08:58.999Z,35.47
2023-02-05T21:11:28.555Z,36.60
2023-02-05T21:13:57.933Z,35.83
2023-02-05T21:16:28.762Z,34.58
2023-02-05T21:18:57.442Z,35.90
2023-02-05T21:21:27.344Z,37.05
2023-02-05T21:23:56.042Z,36.03
2023-02-05T21:26:25.958Z,37.53
2023-02-05T21:28:55.559Z,34.35
2023-02-05T21:31:24.134Z,36.47
2023-02-05T21:33:53.883Z,36.78
2023-02-05T21:36:22.033Z,37.25
2023-02-05T21:38:50.426Z,38.35
2023-02-05T21:41:20.008Z,36.63
2023-02-05T21:43:49.767Z,39.47
2023-02-05T21:46:18.173Z,38.90
2023-02-05T21:48:49.739Z,36.88
2023-02-05T21:51:20.670Z,27.80
2023-02-05T21:53:49.690Z,38.25
2023-02-05T21:56:19.620Z,37.25
2023-02-05T21:58:47.998Z,38.97
2023-02-05T22:01:18.166Z,38.75
2023-02-05T22:03:50.084Z,39.75
2023-02-05T22:06:19.967Z,39.58
2023-02-05T22:08:50.691Z,37.85
2023-02-05T22:11:20.834Z,37.88
2023-02-05T22:13:50.574Z,38.30
2023-02-05T22:16:21.525Z,38.92
2023-02-05T22:18:50.442Z,40.75
2023-02-05T22:21:21.675Z,38.13
2023-02-05T22:23:51.539Z,40.90
2023-02-05T22:26:22.115Z,38.80
2023-02-05T22:28:50.580Z,39.90
2023-02-05T22:31:21.082Z,44.13
2023-02-05T22:33:50.786Z,42.00
2023-02-05T22:36:22.486Z,46.13
2023-02-05T22:38:51.918Z,43.67
2023-02-05T22:41:22.628Z,42.75
2023-02-05T22:43:51.058Z,43.90
2023-02-05T22:46:21.230Z,45.60
2023-02-05T22:48:50.826Z,48.22
2023-02-05T22:51:22.701Z,48.38
2023-02-05T22:53:51.101Z,48.80
2023-02-05T22:56:19.656Z,48.80
2023-02-05T22:58:48.879Z,47.22
2023-02-05T23:01:19.448Z,47.47
2023-02-05T23:03:49.299Z,48.90
2023-02-05T23:06:22.684Z,47.92
2023-02-05T23:08:52.208Z,49.00
2023-02-05T23:11:21.373Z,49.28
2023-02-05T23:13:49.877Z,51.38
2023-02-05T23:16:20.388Z,51.78
2023-02-05T23:18:48.907Z,52.13
2023-02-05T23:21:19.601Z,52.42
2023-02-05T23:23:49.519Z,53.53
2023-02-05T23:26:20.607Z,54.88
2023-02-05T23:28:49.091Z,51.90
2023-02-05T23:31:18.208Z,52.10
2023-02-05T23:33:46.501Z,53.63
2023-02-05T23:36:15.182Z,50.65
2023-02-05T23:38:43.583Z,51.85
2023-02-05T23:41:13.422Z,54.85
2023-02-05T23:43:42.070Z,54.63
2023-02-05T23:46:10.554Z,55.72
2023-02-05T23:48:38.840Z,53.45
2023-02-05T23:51:07.226Z,54.20
2023-02-05T23:53:35.389Z,52.30
2023-02-05T23:56:03.759Z,53.67
2023-02-05T23:58:33.433Z,54.67
